createdAt,value
2022-08-26T00:00:34.180Z,85.55
2022-08-26T00:01:34.151Z,85.96
2022-08-26T00:02:34.249Z,85.25
2022-08-26T00:03:34.144Z,85.55
2022-08-26T00:04:34.131Z,85.55
2022-08-26T00:05:34.139Z,85.46
2022-08-26T00:06:34.100Z,86.16
2022-08-26T00:07:34.103Z,86.35
2022-08-26T00:08:34.093Z,86.35
2022-08-26T00:09:39.027Z,86.50
2022-08-26T00:10:35.111Z,86.90
2022-08-26T00:11:34.043Z,86.80
2022-08-26T00:12:36.160Z,87.00
2022-08-26T00:13:34.039Z,87.20
2022-08-26T00:14:34.020Z,87.10
2022-08-26T00:15:33.999Z,86.90
2022-08-26T00:16:34.038Z,86.60
2022-08-26T00:17:33.974Z,87.00
2022-08-26T00:18:38.682Z,87.10
2022-08-26T00:19:34.972Z,86.90
2022-08-26T00:20:34.296Z,87.00
2022-08-26T00:21:33.932Z,86.69
2022-08-26T00:22:33.933Z,87.00
2022-08-26T00:23:33.924Z,87.00
2022-08-26T00:24:33.918Z,86.90
2022-08-26T00:25:33.914Z,87.00
2022-08-26T00:26:33.901Z,87.10
2022-08-26T00:27:33.876Z,87.10
2022-08-26T00:28:33.876Z,87.60
2022-08-26T00:29:35.633Z,88.10
2022-08-26T00:30:33.864Z,87.30
2022-08-26T00:31:33.858Z,87.30
2022-08-26T00:32:33.828Z,87.40
2022-08-26T00:33:33.817Z,87.10
2022-08-26T00:34:33.817Z,87.10
2022-08-26T00:35:33.797Z,87.20
2022-08-26T00:36:33.777Z,87.20
2022-08-26T00:37:33.764Z,87.90
2022-08-26T00:38:33.767Z,87.44
2022-08-26T00:39:33.737Z,87.54
2022-08-26T00:40:33.770Z,87.44
2022-08-26T00:41:33.716Z,87.84
2022-08-26T00:42:33.722Z,87.84
2022-08-26T00:43:46.171Z,87.74
2022-08-26T00:44:34.692Z,87.64
2022-08-26T00:45:33.710Z,87.94
2022-08-26T00:46:33.715Z,88.44
2022-08-26T00:47:33.660Z,88.54
2022-08-26T00:48:33.654Z,88.44
2022-08-26T00:49:33.647Z,88.44
2022-08-26T00:50:33.628Z,88.64
2022-08-26T00:51:33.621Z,88.44
2022-08-26T00:52:33.600Z,88.75
2022-08-26T00:53:33.589Z,88.44
2022-08-26T00:54:33.588Z,88.44
2022-08-26T00:55:37.836Z,88.34
2022-08-26T00:56:33.602Z,88.95
2022-08-26T00:57:33.532Z,88.95
2022-08-26T00:58:33.552Z,88.44
2022-08-26T00:59:33.521Z,88.44
2022-08-26T01:00:33.525Z,88.84
2022-08-26T01:01:33.540Z,88.84
2022-08-26T01:02:33.560Z,88.34
2022-08-26T01:03:33.493Z,88.64
2022-08-26T01:04:33.481Z,88.24
2022-08-26T01:05:33.461Z,87.74
2022-08-26T01:06:33.453Z,88.44
2022-08-26T01:07:33.438Z,88.24
2022-08-26T01:08:33.453Z,88.24
2022-08-26T01:09:33.417Z,87.84
2022-08-26T01:10:33.405Z,87.84
2022-08-26T01:11:33.388Z,87.84
2022-08-26T01:12:33.385Z,87.84
2022-08-26T01:13:33.381Z,88.54
2022-08-26T01:14:33.368Z,88.14
2022-08-26T01:15:33.356Z,88.84
2022-08-26T01:16:33.400Z,88.75
2022-08-26T01:17:33.831Z,88.44
2022-08-26T01:18:33.318Z,88.24
2022-08-26T01:19:33.304Z,88.34
2022-08-26T01:20:33.297Z,88.14
2022-08-26T01:21:33.264Z,88.04
2022-08-26T01:22:33.276Z,87.94
2022-08-26T01:23:33.265Z,88.54
2022-08-26T01:24:33.258Z,88.34
2022-08-26T01:25:33.250Z,88.44
2022-08-26T01:26:33.234Z,88.54
2022-08-26T01:27:33.630Z,88.54
2022-08-26T01:28:33.209Z,88.24
2022-08-26T01:29:33.216Z,88.24
2022-08-26T01:30:33.189Z,88.04
2022-08-26T01:31:33.237Z,87.84
2022-08-26T01:32:33.193Z,87.14
2022-08-26T01:33:40.023Z,87.64
2022-08-26T01:34:34.150Z,88.24
2022-08-26T01:35:33.118Z,87.94
2022-08-26T01:36:33.141Z,88.24
2022-08-26T01:37:33.109Z,88.24
2022-08-26T01:38:33.101Z,87.84
2022-08-26T01:39:33.078Z,87.28
2022-08-26T01:40:33.324Z,87.38
2022-08-26T01:41:33.061Z,87.68
2022-08-26T01:42:33.081Z,87.88
2022-08-26T01:43:33.029Z,87.58
2022-08-26T01:44:33.040Z,87.48
2022-08-26T01:45:33.067Z,87.38
2022-08-26T01:46:33.020Z,86.98
2022-08-26T01:47:32.989Z,87.18
2022-08-26T01:48:33.001Z,87.18
2022-08-26T01:49:32.969Z,87.48
2022-08-26T01:50:32.972Z,87.48
2022-08-26T01:51:32.941Z,87.48
2022-08-26T01:52:33.034Z,87.38
2022-08-26T01:53:32.945Z,87.68
2022-08-26T01:54:32.925Z,87.48
2022-08-26T01:55:34.066Z,87.98
2022-08-26T01:56:33.431Z,87.48
2022-08-26T01:57:32.910Z,87.18
2022-08-26T01:58:32.906Z,87.08
2022-08-26T01:59:32.861Z,87.88
2022-08-26T02:00:32.907Z,87.58
2022-08-26T02:01:32.834Z,88.09
2022-08-26T02:02:33.037Z,87.98
2022-08-26T02:03:32.880Z,87.68
2022-08-26T02:04:32.947Z,88.29
2022-08-26T02:05:32.877Z,87.73
2022-08-26T02:06:32.894Z,88.02
2022-08-26T02:07:33.263Z,87.62
2022-08-26T02:08:32.877Z,87.42
2022-08-26T02:09:32.925Z,87.42
2022-08-26T02:10:33.737Z,88.12
2022-08-26T02:11:32.957Z,87.62
2022-08-26T02:12:33.318Z,88.12
2022-08-26T02:13:32.910Z,87.93
2022-08-26T02:14:33.001Z,87.52
2022-08-26T02:15:32.990Z,87.42
2022-08-26T02:16:33.039Z,87.42
2022-08-26T02:17:33.305Z,88.02
2022-08-26T02:18:32.938Z,88.23
2022-08-26T02:19:32.969Z,88.12
2022-08-26T02:20:33.050Z,88.32
2022-08-26T02:21:33.009Z,88.27
2022-08-26T02:22:33.174Z,88.27
2022-08-26T02:23:33.049Z,88.17
2022-08-26T02:24:33.037Z,88.27
2022-08-26T02:25:32.934Z,88.37
2022-08-26T02:26:33.049Z,88.37
2022-08-26T02:27:33.350Z,88.57
2022-08-26T02:28:32.592Z,88.57
2022-08-26T02:29:32.518Z,88.37
2022-08-26T02:30:32.538Z,88.57
2022-08-26T02:31:32.543Z,88.67
2022-08-26T02:32:32.510Z,88.67
2022-08-26T02:33:32.502Z,88.77
2022-08-26T02:34:32.482Z,88.67
2022-08-26T02:35:32.455Z,88.77
2022-08-26T02:36:32.458Z,88.77
2022-08-26T02:37:32.430Z,89.07
2022-08-26T02:38:32.430Z,88.97
2022-08-26T02:39:32.421Z,88.87
2022-08-26T02:40:32.443Z,88.77
2022-08-26T02:41:32.390Z,88.67
2022-08-26T02:42:32.407Z,88.47
2022-08-26T02:43:33.051Z,88.47
2022-08-26T02:44:32.382Z,88.37
2022-08-26T02:45:32.374Z,88.57
2022-08-26T02:46:32.382Z,88.77
2022-08-26T02:47:32.462Z,88.87
2022-08-26T02:48:32.322Z,88.97
2022-08-26T02:49:32.306Z,88.97
2022-08-26T02:50:32.316Z,88.97
2022-08-26T02:51:32.287Z,88.97
2022-08-26T02:52:32.274Z,89.17
2022-08-26T02:53:35.655Z,89.07
2022-08-26T02:54:32.254Z,89.22
2022-08-26T02:55:32.255Z,89.11
2022-08-26T02:56:32.234Z,89.11
2022-08-26T02:57:32.209Z,89.42
2022-08-26T02:58:32.206Z,90.02
2022-08-26T02:59:32.186Z,90.48
2022-08-26T03:00:32.273Z,90.22
2022-08-26T03:01:32.263Z,90.08
2022-08-26T03:02:32.174Z,90.02
2022-08-26T03:03:32.146Z,90.02
2022-08-26T03:04:33.462Z,89.82
2022-08-26T03:05:32.146Z,89.82
2022-08-26T03:06:32.150Z,90.12
2022-08-26T03:07:32.109Z,90.22
2022-08-26T03:08:32.106Z,90.22
2022-08-26T03:09:32.130Z,90.02
2022-08-26T03:10:32.127Z,89.92
2022-08-26T03:11:33.141Z,90.02
2022-08-26T03:12:32.060Z,90.12
2022-08-26T03:13:32.032Z,90.52
2022-08-26T03:14:32.040Z,90.72
2022-08-26T03:15:31.998Z,90.82
2022-08-26T03:16:32.516Z,90.62
2022-08-26T03:17:31.991Z,90.52
2022-08-26T03:18:31.991Z,90.42
2022-08-26T03:19:31.970Z,90.12
2022-08-26T03:20:31.977Z,90.12
2022-08-26T03:21:31.962Z,90.22
2022-08-26T03:22:31.938Z,90.26
2022-08-26T03:23:31.922Z,90.66
2022-08-26T03:24:31.930Z,90.32
2022-08-26T03:25:31.899Z,89.72
2022-08-26T03:26:31.890Z,89.42
2022-08-26T03:27:32.808Z,88.67
2022-08-26T03:28:31.880Z,88.37
2022-08-26T03:29:32.935Z,88.07
2022-08-26T03:30:31.863Z,87.77
2022-08-26T03:31:31.866Z,87.57
2022-08-26T03:32:31.847Z,87.37
2022-08-26T03:33:31.802Z,87.22
2022-08-26T03:34:31.804Z,86.82
2022-08-26T03:35:31.789Z,86.82
2022-08-26T03:36:31.804Z,86.62
2022-08-26T03:37:31.775Z,86.52
2022-08-26T03:38:31.762Z,86.72
2022-08-26T03:39:32.629Z,86.92
2022-08-26T03:40:31.782Z,86.72
2022-08-26T03:41:31.727Z,86.92
2022-08-26T03:42:31.735Z,86.96
2022-08-26T03:43:31.702Z,87.16
2022-08-26T03:44:31.697Z,87.57
2022-08-26T03:45:31.675Z,88.37
2022-08-26T03:46:31.762Z,88.07
2022-08-26T03:47:31.675Z,87.87
2022-08-26T03:48:31.668Z,87.96
2022-08-26T03:49:31.686Z,87.91
2022-08-26T03:50:34.259Z,88.81
2022-08-26T03:51:31.738Z,88.81
2022-08-26T03:52:31.796Z,88.91
2022-08-26T03:53:31.797Z,88.91
2022-08-26T03:54:31.827Z,88.81
2022-08-26T03:55:31.829Z,88.81
2022-08-26T03:56:31.788Z,88.91
2022-08-26T03:57:31.567Z,89.11
2022-08-26T03:58:31.559Z,88.81
2022-08-26T03:59:31.559Z,88.81
2022-08-26T04:00:31.519Z,88.81
2022-08-26T04:01:31.561Z,88.75
2022-08-26T04:02:31.561Z,88.75
2022-08-26T04:03:31.487Z,88.85
2022-08-26T04:04:31.485Z,88.75
2022-08-26T04:05:31.451Z,89.06
2022-08-26T04:06:31.441Z,88.55
2022-08-26T04:07:31.926Z,88.21
2022-08-26T04:08:31.424Z,88.31
2022-08-26T04:09:31.420Z,88.31
2022-08-26T04:10:31.391Z,88.21
2022-08-26T04:11:34.182Z,88.21
2022-08-26T04:12:31.383Z,87.91
2022-08-26T04:13:31.392Z,88.01
2022-08-26T04:14:31.371Z,87.91
2022-08-26T04:15:31.351Z,87.91
2022-08-26T04:16:31.362Z,87.91
2022-08-26T04:17:31.333Z,87.91
2022-08-26T04:18:36.891Z,87.91
2022-08-26T04:19:32.475Z,88.05
2022-08-26T04:20:31.312Z,88.65
2022-08-26T04:21:31.291Z,89.26
2022-08-26T04:22:31.263Z,89.46
2022-08-26T04:23:31.296Z,89.46
2022-08-26T04:24:32.243Z,89.66
2022-08-26T04:25:31.259Z,89.66
2022-08-26T04:26:31.228Z,89.60
2022-08-26T04:27:31.211Z,89.70
2022-08-26T04:28:31.195Z,90.20
2022-08-26T04:29:31.243Z,90.41
2022-08-26T04:30:31.175Z,90.61
2022-08-26T04:31:31.217Z,91.01
2022-08-26T04:32:31.156Z,90.81
2022-08-26T04:33:33.153Z,90.50
2022-08-26T04:34:31.152Z,90.95
2022-08-26T04:35:31.136Z,91.46
2022-08-26T04:36:31.128Z,91.55
2022-08-26T04:37:31.138Z,91.35
2022-08-26T04:38:31.088Z,91.35
2022-08-26T04:39:31.088Z,91.35
2022-08-26T04:40:31.111Z,91.66
2022-08-26T04:41:31.509Z,91.55
2022-08-26T04:42:31.052Z,91.46
2022-08-26T04:43:31.036Z,91.46
2022-08-26T04:44:31.017Z,91.55
2022-08-26T04:45:31.028Z,91.46
2022-08-26T04:46:31.051Z,91.35
2022-08-26T04:47:32.422Z,91.35
2022-08-26T04:48:30.977Z,91.25
2022-08-26T04:49:35.438Z,91.35
2022-08-26T04:50:30.957Z,91.15
2022-08-26T04:51:30.960Z,91.15
2022-08-26T04:52:31.041Z,91.25
2022-08-26T04:53:30.928Z,91.35
2022-08-26T04:54:30.909Z,91.70
2022-08-26T04:55:38.175Z,91.55
2022-08-26T04:56:31.897Z,91.55
2022-08-26T04:57:30.889Z,91.86
2022-08-26T04:58:31.240Z,91.25
2022-08-26T04:59:30.868Z,91.05
2022-08-26T05:00:30.848Z,91.15
2022-08-26T05:01:30.933Z,91.46
2022-08-26T05:02:30.828Z,91.35
2022-08-26T05:03:30.832Z,91.55
2022-08-26T05:04:30.878Z,91.35
2022-08-26T05:05:30.800Z,91.05
2022-08-26T05:06:30.773Z,90.11
2022-08-26T05:07:31.884Z,89.70
2022-08-26T05:08:30.773Z,89.70
2022-08-26T05:09:30.757Z,89.40
2022-08-26T05:10:30.733Z,89.60
2022-08-26T05:11:30.748Z,89.40
2022-08-26T05:12:30.752Z,89.40
2022-08-26T05:13:30.728Z,89.40
2022-08-26T05:14:30.696Z,89.70
2022-08-26T05:15:30.694Z,89.95
2022-08-26T05:16:30.720Z,90.15
2022-08-26T05:17:30.692Z,90.34
2022-08-26T05:18:30.979Z,90.65
2022-08-26T05:19:30.653Z,90.85
2022-08-26T05:20:30.625Z,91.25
2022-08-26T05:21:30.638Z,91.15
2022-08-26T05:22:30.881Z,90.45
2022-08-26T05:23:30.619Z,90.79
2022-08-26T05:24:30.581Z,91.09
2022-08-26T05:25:30.585Z,91.19
2022-08-26T05:26:30.557Z,91.30
2022-08-26T05:27:30.610Z,91.39
2022-08-26T05:28:30.577Z,91.39
2022-08-26T05:29:30.544Z,91.50
2022-08-26T05:30:30.525Z,91.30
2022-08-26T05:31:30.599Z,91.39
2022-08-26T05:32:30.551Z,91.39
2022-08-26T05:33:30.564Z,91.30
2022-08-26T05:34:30.810Z,91.39
2022-08-26T05:35:30.597Z,91.60
2022-08-26T05:36:30.594Z,90.89
2022-08-26T05:37:30.665Z,90.65
2022-08-26T05:38:30.629Z,90.25
2022-08-26T05:39:30.650Z,90.15
2022-08-26T05:40:30.774Z,90.15
2022-08-26T05:41:34.391Z,90.15
2022-08-26T05:42:31.400Z,90.34
2022-08-26T05:43:30.654Z,90.15
2022-08-26T05:44:35.850Z,90.55
2022-08-26T05:45:31.361Z,90.25
2022-08-26T05:46:30.710Z,90.15
2022-08-26T05:47:30.749Z,90.34
2022-08-26T05:48:30.777Z,90.55
2022-08-26T05:49:30.638Z,90.55
2022-08-26T05:50:30.789Z,90.79
2022-08-26T05:51:31.134Z,90.99
2022-08-26T05:52:30.420Z,91.09
2022-08-26T05:53:30.450Z,91.39
2022-08-26T05:54:30.797Z,91.80
2022-08-26T05:55:30.901Z,91.30
2022-08-26T05:56:30.521Z,91.39
2022-08-26T05:57:30.645Z,91.60
2022-08-26T05:58:30.933Z,91.60
2022-08-26T05:59:30.473Z,91.70
2022-08-26T06:00:30.409Z,92.00
2022-08-26T06:01:30.496Z,91.90
2022-08-26T06:02:31.191Z,92.00
2022-08-26T06:03:30.645Z,91.90
2022-08-26T06:04:30.446Z,91.80
2022-08-26T06:05:30.351Z,92.00
2022-08-26T06:06:30.239Z,92.10
2022-08-26T06:07:30.169Z,92.30
2022-08-26T06:08:30.093Z,92.50
2022-08-26T06:09:30.097Z,92.60
2022-08-26T06:10:32.639Z,92.71
2022-08-26T06:11:30.786Z,92.71
2022-08-26T06:12:30.050Z,92.71
2022-08-26T06:13:30.260Z,92.80
2022-08-26T06:14:30.028Z,92.91
2022-08-26T06:15:30.029Z,93.01
2022-08-26T06:16:30.055Z,93.11
2022-08-26T06:17:30.018Z,93.11
2022-08-26T06:18:29.993Z,93.11
2022-08-26T06:19:33.095Z,93.21
2022-08-26T06:20:29.962Z,93.31
2022-08-26T06:21:29.977Z,93.16
2022-08-26T06:22:29.953Z,93.16
2022-08-26T06:23:29.938Z,93.16
2022-08-26T06:24:30.121Z,92.76
2022-08-26T06:25:29.914Z,92.96
2022-08-26T06:26:29.914Z,93.07
2022-08-26T06:27:32.849Z,92.96
2022-08-26T06:28:29.914Z,93.07
2022-08-26T06:29:29.903Z,92.86
2022-08-26T06:30:29.849Z,92.76
2022-08-26T06:31:29.892Z,92.56
2022-08-26T06:32:29.834Z,92.66
2022-08-26T06:33:29.838Z,92.76
2022-08-26T06:34:30.747Z,92.56
2022-08-26T06:35:29.805Z,92.76
2022-08-26T06:36:29.778Z,92.86
2022-08-26T06:37:29.802Z,92.86
2022-08-26T06:38:29.766Z,92.96
2022-08-26T06:39:31.122Z,93.07
2022-08-26T06:40:29.804Z,93.37
2022-08-26T06:41:29.742Z,93.46
2022-08-26T06:42:29.766Z,93.42
2022-08-26T06:43:29.709Z,93.32
2022-08-26T06:44:29.690Z,93.32
2022-08-26T06:45:29.718Z,93.42
2022-08-26T06:46:29.751Z,93.52
2022-08-26T06:47:29.722Z,93.62
2022-08-26T06:48:29.643Z,93.52
2022-08-26T06:49:29.650Z,93.62
2022-08-26T06:50:29.630Z,93.73
2022-08-26T06:51:29.642Z,93.73
2022-08-26T06:52:29.723Z,93.93
2022-08-26T06:53:29.655Z,93.98
2022-08-26T06:54:29.592Z,94.08
2022-08-26T06:55:29.582Z,94.08
2022-08-26T06:56:29.571Z,93.98
2022-08-26T06:57:29.566Z,93.88
2022-08-26T06:58:29.550Z,93.68
2022-08-26T06:59:29.538Z,93.54
2022-08-26T07:00:29.536Z,93.43
2022-08-26T07:01:29.593Z,93.33
2022-08-26T07:02:29.526Z,93.43
2022-08-26T07:03:29.495Z,93.33
2022-08-26T07:04:30.480Z,93.43
2022-08-26T07:05:29.498Z,93.54
2022-08-26T07:06:29.451Z,93.74
2022-08-26T07:07:29.524Z,93.84
2022-08-26T07:08:29.444Z,93.93
2022-08-26T07:09:29.490Z,93.84
2022-08-26T07:10:29.404Z,93.93
2022-08-26T07:11:29.430Z,94.13
2022-08-26T07:12:29.375Z,94.04
2022-08-26T07:13:30.535Z,93.84
2022-08-26T07:14:29.377Z,93.69
2022-08-26T07:15:31.205Z,93.79
2022-08-26T07:16:29.349Z,93.79
2022-08-26T07:17:29.341Z,93.69
2022-08-26T07:18:29.359Z,93.59
2022-08-26T07:19:30.763Z,93.89
2022-08-26T07:20:29.299Z,94.09
2022-08-26T07:21:29.297Z,94.20
2022-08-26T07:22:29.276Z,94.29
2022-08-26T07:23:29.268Z,94.39
2022-08-26T07:24:29.319Z,94.49
2022-08-26T07:25:29.249Z,94.49
2022-08-26T07:26:29.220Z,94.59
2022-08-26T07:27:29.248Z,94.59
2022-08-26T07:28:29.208Z,94.45
2022-08-26T07:29:29.201Z,94.45
2022-08-26T07:30:29.197Z,93.95
2022-08-26T07:31:29.247Z,94.05
2022-08-26T07:32:29.185Z,94.05
2022-08-26T07:33:29.182Z,94.10
2022-08-26T07:34:29.144Z,93.80
2022-08-26T07:35:29.168Z,93.60
2022-08-26T07:36:29.108Z,93.40
2022-08-26T07:37:29.145Z,93.80
2022-08-26T07:38:30.088Z,93.80
2022-08-26T07:39:31.661Z,94.40
2022-08-26T07:40:29.122Z,94.20
2022-08-26T07:42:29.053Z,93.50
2022-08-26T07:43:29.325Z,93.46
2022-08-26T07:44:29.033Z,92.96
2022-08-26T07:45:29.036Z,93.30
2022-08-26T07:46:30.168Z,93.40
2022-08-26T07:47:29.160Z,93.70
2022-08-26T07:48:28.980Z,94.00
2022-08-26T07:49:29.004Z,94.40
2022-08-26T07:50:49.490Z,94.75
2022-08-26T07:51:29.994Z,94.71
2022-08-26T07:52:28.947Z,94.81
2022-08-26T07:53:28.933Z,94.31
2022-08-26T07:54:28.911Z,94.20
2022-08-26T07:55:28.912Z,94.31
2022-08-26T07:56:28.908Z,94.31
2022-08-26T07:57:28.907Z,94.26
2022-08-26T07:58:28.872Z,94.06
2022-08-26T07:59:28.864Z,93.96
2022-08-26T08:00:28.856Z,93.55
2022-08-26T08:01:28.844Z,93.16
2022-08-26T08:02:28.847Z,92.96
2022-08-26T08:03:28.836Z,92.96
2022-08-26T08:04:28.804Z,93.05
2022-08-26T08:05:28.803Z,93.26
2022-08-26T08:06:29.796Z,93.26
2022-08-26T08:07:44.435Z,93.36
2022-08-26T08:08:29.770Z,93.26
2022-08-26T08:09:28.765Z,92.96
2022-08-26T08:10:28.747Z,93.05
2022-08-26T08:11:28.756Z,93.16
2022-08-26T08:12:28.728Z,92.96
2022-08-26T08:13:28.720Z,93.01
2022-08-26T08:14:29.056Z,93.05
2022-08-26T08:15:28.710Z,93.16
2022-08-26T08:16:28.744Z,93.26
2022-08-26T08:17:28.672Z,93.36
2022-08-26T08:18:28.659Z,93.46
2022-08-26T08:19:33.095Z,93.51
2022-08-26T08:20:29.662Z,93.01
2022-08-26T08:21:29.020Z,92.57
2022-08-26T08:22:28.628Z,92.36
2022-08-26T08:23:28.629Z,92.52
2022-08-26T08:24:28.602Z,91.42
2022-08-26T08:25:28.576Z,90.96
2022-08-26T08:26:28.728Z,91.77
2022-08-26T08:27:28.629Z,91.86
2022-08-26T08:28:28.569Z,91.97
2022-08-26T08:29:28.541Z,91.97
2022-08-26T08:30:28.533Z,92.27
2022-08-26T08:31:52.513Z,91.97
2022-08-26T08:32:29.518Z,91.77
2022-08-26T08:33:28.513Z,91.97
2022-08-26T08:34:28.594Z,92.11
2022-08-26T08:35:28.493Z,92.41
2022-08-26T08:36:35.868Z,92.61
2022-08-26T08:37:29.453Z,93.17
2022-08-26T08:38:28.449Z,92.97
2022-08-26T08:39:28.421Z,92.32
2022-08-26T08:40:29.337Z,91.42
2022-08-26T08:41:28.426Z,91.02
2022-08-26T08:42:28.401Z,90.92
2022-08-26T08:43:28.374Z,91.02
2022-08-26T08:45:29.232Z,91.42
2022-08-26T08:46:28.431Z,91.22
2022-08-26T08:47:28.362Z,91.12
2022-08-26T08:48:28.381Z,91.52
2022-08-26T08:49:28.314Z,91.82
2022-08-26T08:50:28.328Z,91.62
2022-08-26T08:51:28.313Z,90.92
2022-08-26T08:52:28.330Z,91.12
2022-08-26T08:53:28.266Z,91.02
2022-08-26T08:54:28.289Z,91.32
2022-08-26T08:55:28.246Z,91.22
2022-08-26T08:56:28.257Z,91.32
2022-08-26T08:57:28.242Z,91.12
2022-08-26T08:58:28.241Z,91.42
2022-08-26T08:59:28.220Z,91.42
2022-08-26T09:00:30.137Z,91.32
2022-08-26T09:01:28.216Z,91.52
2022-08-26T09:02:28.321Z,91.17
2022-08-26T09:03:28.170Z,90.78
2022-08-26T09:04:28.178Z,90.67
2022-08-26T09:05:28.130Z,90.58
2022-08-26T09:06:28.138Z,90.88
2022-08-26T09:07:28.130Z,91.08
2022-08-26T09:08:28.110Z,91.17
2022-08-26T09:09:28.098Z,90.58
2022-08-26T09:10:28.090Z,90.28
2022-08-26T09:11:28.070Z,90.13
2022-08-26T09:12:29.633Z,89.94
2022-08-26T09:13:28.052Z,89.53
2022-08-26T09:14:28.049Z,89.03
2022-08-26T09:15:30.388Z,89.83
2022-08-26T09:16:28.081Z,89.43
2022-08-26T09:17:28.018Z,89.39
2022-08-26T09:18:28.197Z,88.69
2022-08-26T09:19:27.991Z,88.09
2022-08-26T09:20:27.989Z,88.09
2022-08-26T09:21:27.990Z,88.39
2022-08-26T09:22:27.971Z,88.69
2022-08-26T09:23:27.946Z,88.29
2022-08-26T09:24:28.496Z,88.49
2022-08-26T09:25:27.910Z,88.05
2022-08-26T09:26:30.761Z,87.95
2022-08-26T09:27:27.902Z,88.60
2022-08-26T09:28:27.914Z,87.25
2022-08-26T09:29:27.874Z,87.15
2022-08-26T09:30:27.935Z,87.45
2022-08-26T09:31:27.877Z,87.35
2022-08-26T09:32:27.880Z,88.05
2022-08-26T09:33:27.846Z,87.55
2022-08-26T09:34:27.834Z,87.85
2022-08-26T09:35:27.814Z,87.11
2022-08-26T09:36:27.894Z,86.31
2022-08-26T09:37:27.794Z,86.31
2022-08-26T09:38:28.050Z,86.51
2022-08-26T09:39:27.761Z,86.71
2022-08-26T09:40:27.872Z,86.36
2022-08-26T09:41:27.734Z,85.97
2022-08-26T09:42:27.734Z,85.77
2022-08-26T09:43:27.736Z,85.57
2022-08-26T09:44:27.706Z,85.77
2022-08-26T09:45:27.694Z,86.07
2022-08-26T09:46:27.963Z,85.77
2022-08-26T09:47:27.746Z,85.97
2022-08-26T09:48:27.686Z,85.97
2022-08-26T09:49:27.667Z,85.87
2022-08-26T09:50:29.061Z,85.93
2022-08-26T09:51:27.627Z,85.13
2022-08-26T09:52:27.617Z,84.93
2022-08-26T09:53:28.729Z,84.69
2022-08-26T09:54:30.475Z,84.69
2022-08-26T09:55:27.579Z,84.29
2022-08-26T09:56:27.856Z,84.19
2022-08-26T09:57:27.572Z,84.69
2022-08-26T09:58:27.558Z,84.23
2022-08-26T09:59:27.550Z,84.43
2022-08-26T10:00:27.562Z,84.53
2022-08-26T10:01:27.556Z,85.23
2022-08-26T10:02:27.523Z,83.93
2022-08-26T10:03:27.503Z,84.43
2022-08-26T10:04:27.540Z,84.83
2022-08-26T10:05:27.470Z,84.69
2022-08-26T10:06:27.605Z,84.29
2022-08-26T10:07:27.450Z,84.69
2022-08-26T10:08:27.454Z,84.35
2022-08-26T10:09:28.171Z,84.75
2022-08-26T10:10:27.462Z,84.01
2022-08-26T10:11:27.434Z,82.92
2022-08-26T10:12:27.405Z,82.12
2022-08-26T10:13:28.080Z,82.26
2022-08-26T10:14:27.432Z,82.89
2022-08-26T10:15:27.383Z,83.79
2022-08-26T10:16:28.373Z,84.09
2022-08-26T10:17:27.342Z,84.29
2022-08-26T10:18:30.732Z,84.29
2022-08-26T10:19:29.298Z,84.49
2022-08-26T10:20:28.334Z,85.09
2022-08-26T10:21:27.299Z,84.89
2022-08-26T10:22:27.312Z,84.15
2022-08-26T10:23:27.316Z,83.45
2022-08-26T10:24:27.358Z,83.55
2022-08-26T10:25:27.387Z,83.61
2022-08-26T10:26:27.411Z,83.71
2022-08-26T10:27:27.399Z,82.62
2022-08-26T10:28:27.447Z,82.12
2022-08-26T10:29:27.458Z,82.75
2022-08-26T10:30:27.480Z,82.75
2022-08-26T10:31:28.114Z,82.86
2022-08-26T10:32:27.242Z,83.25
2022-08-26T10:33:27.185Z,82.75
2022-08-26T10:34:27.170Z,83.09
2022-08-26T10:35:27.142Z,83.69
2022-08-26T10:36:27.792Z,84.25
2022-08-26T10:37:27.118Z,84.35
2022-08-26T10:38:27.123Z,83.55
2022-08-26T10:39:27.111Z,83.55
2022-08-26T10:40:27.314Z,83.95
2022-08-26T10:41:27.086Z,83.95
2022-08-26T10:42:27.074Z,83.25
2022-08-26T10:43:27.062Z,82.86
2022-08-26T10:45:17.587Z,83.05
2022-08-26T10:46:17.858Z,82.89
2022-08-26T10:47:17.530Z,83.19
2022-08-26T10:48:17.526Z,83.79
2022-08-26T10:49:17.502Z,83.45
2022-08-26T10:50:17.954Z,82.65
2022-08-26T10:51:17.506Z,82.86
2022-08-26T10:52:17.474Z,82.21
2022-08-26T10:53:17.454Z,82.51
2022-08-26T10:54:17.446Z,82.62
2022-08-26T10:55:17.450Z,82.81
2022-08-26T10:56:19.185Z,82.48
2022-08-26T10:57:17.410Z,82.57
2022-08-26T10:58:26.501Z,82.28
2022-08-26T10:59:18.391Z,82.28
2022-08-26T11:00:17.379Z,81.98
2022-08-26T11:01:17.398Z,81.98
2022-08-26T11:02:22.769Z,81.74
2022-08-26T11:03:21.838Z,81.24
2022-08-26T11:04:17.391Z,80.94
2022-08-26T11:05:17.530Z,80.84
2022-08-26T11:06:17.344Z,80.98
2022-08-26T11:07:17.303Z,81.08
2022-08-26T11:08:17.298Z,81.68
2022-08-26T11:09:17.279Z,81.18
2022-08-26T11:10:17.302Z,81.48
2022-08-26T11:11:17.271Z,81.28
2022-08-26T11:12:17.264Z,80.98
2022-08-26T11:13:17.263Z,80.44
2022-08-26T11:14:17.243Z,80.44
2022-08-26T11:15:18.449Z,79.55
2022-08-26T11:16:17.258Z,80.05
2022-08-26T11:17:17.227Z,79.65
2022-08-26T11:18:17.194Z,79.75
2022-08-26T11:19:17.192Z,80.15
2022-08-26T11:20:17.220Z,80.35
2022-08-26T11:21:17.167Z,80.65
2022-08-26T11:22:18.615Z,80.84
2022-08-26T11:23:17.134Z,80.78
2022-08-26T11:24:17.115Z,81.18
2022-08-26T11:25:18.155Z,81.48
2022-08-26T11:26:37.611Z,82.21
2022-08-26T11:27:18.618Z,82.62
2022-08-26T11:28:17.114Z,82.92
2022-08-26T11:29:17.061Z,82.95
2022-08-26T11:30:18.368Z,83.05
2022-08-26T11:31:17.056Z,83.31
2022-08-26T11:32:17.025Z,83.01
2022-08-26T11:33:17.026Z,82.62
2022-08-26T11:34:17.006Z,82.51
2022-08-26T11:35:17.037Z,82.42
2022-08-26T11:36:17.014Z,82.07
2022-08-26T11:37:17.023Z,81.77
2022-08-26T11:38:17.317Z,81.28
2022-08-26T11:39:16.949Z,81.38
2022-08-26T11:40:16.982Z,81.68
2022-08-26T11:41:16.939Z,81.74
2022-08-26T11:42:16.919Z,80.84
2022-08-26T11:43:16.899Z,80.65
2022-08-26T11:44:16.939Z,79.94
2022-08-26T11:45:16.879Z,80.05
2022-08-26T11:46:16.920Z,79.81
2022-08-26T11:47:16.867Z,79.31
2022-08-26T11:48:16.851Z,79.61
2022-08-26T11:49:16.843Z,79.91
2022-08-26T11:50:16.840Z,79.21
2022-08-26T11:51:16.803Z,79.21
2022-08-26T11:52:16.799Z,80.00
2022-08-26T11:53:16.792Z,79.91
2022-08-26T11:54:16.791Z,79.71
2022-08-26T11:55:17.786Z,79.57
2022-08-26T11:56:23.880Z,79.61
2022-08-26T11:57:16.739Z,79.71
2022-08-26T11:58:16.879Z,79.61
2022-08-26T11:59:19.421Z,80.07
2022-08-26T12:00:20.505Z,78.88
2022-08-26T12:01:17.714Z,79.37
2022-08-26T12:02:16.743Z,78.78
2022-08-26T12:03:16.725Z,79.71
2022-08-26T12:04:16.787Z,79.31
2022-08-26T12:05:16.663Z,79.51
2022-08-26T12:06:16.735Z,79.91
2022-08-26T12:07:16.648Z,79.61
2022-08-26T12:08:16.633Z,79.61
2022-08-26T12:09:16.616Z,79.51
2022-08-26T12:10:16.624Z,79.61
2022-08-26T12:11:16.604Z,78.88
2022-08-26T12:12:16.592Z,79.27
2022-08-26T12:13:16.572Z,78.67
2022-08-26T12:14:16.566Z,78.78
2022-08-26T12:15:16.559Z,78.78
2022-08-26T12:16:16.599Z,79.31
2022-08-26T12:17:16.567Z,79.11
2022-08-26T12:18:16.515Z,79.61
2022-08-26T12:19:16.526Z,80.00
2022-08-26T12:20:16.508Z,80.30
2022-08-26T12:21:16.537Z,79.21
2022-08-26T12:22:16.501Z,79.27
2022-08-26T12:23:16.455Z,79.37
2022-08-26T12:24:16.527Z,79.03
2022-08-26T12:25:16.501Z,78.40
2022-08-26T12:26:16.448Z,77.51
2022-08-26T12:27:16.437Z,77.61
2022-08-26T12:28:16.422Z,77.70
2022-08-26T12:29:20.259Z,78.11
2022-08-26T12:30:19.226Z,77.41
2022-08-26T12:31:17.578Z,77.31
2022-08-26T12:32:16.454Z,77.41
2022-08-26T12:33:22.457Z,77.84
2022-08-26T12:34:17.615Z,77.81
2022-08-26T12:35:16.328Z,76.81
2022-08-26T12:36:16.341Z,77.41
2022-08-26T12:37:16.314Z,77.41
2022-08-26T12:38:16.324Z,77.57
2022-08-26T12:39:16.289Z,76.18
2022-08-26T12:40:16.331Z,75.68
2022-08-26T12:41:16.255Z,76.57
2022-08-26T12:42:16.273Z,76.57
2022-08-26T12:43:16.252Z,76.93
2022-08-26T12:44:16.233Z,76.14
2022-08-26T12:45:16.224Z,75.74
2022-08-26T12:46:16.238Z,75.81
2022-08-26T12:47:16.225Z,75.12
2022-08-26T12:48:17.660Z,75.35
2022-08-26T12:49:16.234Z,75.41
2022-08-26T12:50:16.261Z,75.51
2022-08-26T12:51:16.273Z,75.31
2022-08-26T12:52:16.217Z,75.18
2022-08-26T12:53:16.377Z,74.78
2022-08-26T12:54:16.381Z,73.99
2022-08-26T12:55:16.465Z,73.89